createdAt,value
2022-11-12T00:00:32.967Z,5.40
2022-11-12T00:03:21.756Z,5.40
2022-11-12T00:06:09.019Z,5.50
2022-11-12T00:08:55.649Z,5.50
2022-11-12T00:11:42.762Z,5.40
2022-11-12T00:14:29.273Z,5.40
2022-11-12T00:17:15.952Z,5.40
2022-11-12T00:20:04.269Z,5.40
2022-11-12T00:22:50.826Z,5.40
2022-11-12T00:25:37.546Z,5.40
2022-11-12T00:28:24.946Z,5.50
2022-11-12T00:31:12.990Z,5.40
2022-11-12T00:33:59.671Z,5.40
2022-11-12T00:36:48.122Z,5.40
2022-11-12T00:39:34.546Z,5.40
2022-11-12T00:42:22.303Z,5.50
2022-11-12T00:45:09.703Z,5.50
2022-11-12T00:47:57.520Z,5.50
2022-11-12T00:50:44.217Z,5.50
2022-11-12T00:53:32.158Z,5.50
2022-11-12T00:56:18.703Z,5.50
2022-11-12T00:59:05.981Z,5.60
2022-11-12T01:01:52.644Z,5.50
2022-11-12T01:04:39.906Z,5.50
2022-11-12T01:07:26.596Z,5.50
2022-11-12T01:10:15.352Z,5.50
2022-11-12T01:13:02.563Z,5.50
2022-11-12T01:15:49.206Z,5.50
2022-11-12T01:18:37.938Z,5.40
2022-11-12T01:21:26.760Z,5.40
2022-11-12T01:24:13.947Z,5.50
2022-11-12T01:27:01.704Z,5.40
2022-11-12T01:29:48.494Z,5.40
2022-11-12T01:32:37.408Z,5.30
2022-11-12T01:35:31.843Z,5.30
2022-11-12T01:38:18.492Z,5.30
2022-11-12T01:41:07.048Z,5.30
2022-11-12T01:51:21.059Z,5.30
2022-11-12T01:54:10.613Z,5.30
2022-11-12T01:56:59.121Z,5.40
2022-11-12T01:59:48.634Z,5.30
2022-11-12T02:02:36.207Z,5.30
2022-11-12T02:05:24.656Z,5.30
2022-11-12T02:08:15.856Z,5.20
2022-11-12T02:11:13.604Z,5.30
2022-11-12T02:14:01.224Z,5.30
2022-11-12T02:16:49.888Z,5.20
2022-11-12T02:19:38.689Z,5.10
2022-11-12T02:22:26.912Z,5.20
2022-11-12T02:25:17.028Z,5.20
2022-11-12T02:28:05.910Z,5.30
2022-11-12T02:30:52.570Z,5.30
2022-11-12T02:33:39.015Z,5.30
2022-11-12T02:36:26.705Z,5.30
2022-11-12T02:39:14.649Z,5.20
2022-11-12T02:42:01.134Z,5.20
2022-11-12T02:44:47.738Z,5.20
2022-11-12T02:47:34.499Z,5.10
2022-11-12T02:50:21.627Z,5.10
2022-11-12T02:53:08.120Z,5.20
2022-11-12T02:55:55.781Z,5.20
2022-11-12T02:58:42.232Z,5.10
2022-11-12T03:01:32.847Z,5.10
2022-11-12T03:04:19.411Z,5.10
2022-11-12T03:07:16.089Z,5.10
2022-11-12T03:10:24.533Z,5.20
2022-11-12T03:13:23.137Z,5.10
2022-11-12T03:16:13.873Z,5.10
2022-11-12T03:19:13.024Z,5.20
2022-11-12T03:22:13.163Z,5.20
2022-11-12T03:25:06.584Z,5.10
2022-11-12T03:28:18.363Z,5.10
2022-11-12T03:31:18.655Z,5.10
2022-11-12T03:34:14.921Z,5.10
2022-11-12T03:37:01.665Z,5.10
2022-11-12T03:39:47.993Z,5.10
2022-11-12T03:46:44.313Z,5.10
2022-11-12T03:49:31.203Z,5.00
2022-11-12T03:52:17.740Z,5.00
2022-11-12T03:55:05.238Z,5.00
2022-11-12T03:57:54.207Z,5.00
2022-11-12T04:00:41.364Z,4.90
2022-11-12T04:03:30.783Z,4.90
2022-11-12T04:06:37.238Z,5.00
2022-11-12T04:09:23.706Z,5.00
2022-11-12T04:12:23.993Z,4.90
2022-11-12T04:15:11.059Z,5.00
2022-11-12T04:18:14.923Z,4.80
2022-11-12T04:21:20.551Z,4.90
2022-11-12T04:24:07.373Z,4.90
2022-11-12T04:26:52.741Z,4.80
2022-11-12T04:29:56.838Z,4.80
2022-11-12T04:32:49.961Z,4.80
2022-11-12T04:35:36.355Z,4.80
2022-11-12T04:38:24.626Z,4.80
2022-11-12T04:41:28.864Z,4.70
2022-11-12T04:44:32.928Z,4.70
2022-11-12T04:47:19.449Z,4.70
2022-11-12T04:50:11.766Z,4.50
2022-11-12T04:52:59.838Z,4.50
2022-11-12T04:55:50.893Z,4.40
2022-11-12T04:58:37.474Z,4.40
2022-11-12T05:01:24.075Z,4.40
2022-11-12T05:04:10.756Z,4.50
2022-11-12T05:06:58.296Z,4.40
2022-11-12T05:09:46.023Z,4.30
2022-11-12T05:12:33.917Z,4.30
2022-11-12T05:15:21.221Z,4.30
2022-11-12T05:18:11.148Z,4.20
2022-11-12T05:20:57.977Z,4.20
2022-11-12T05:23:45.212Z,4.20
2022-11-12T05:26:31.552Z,4.10
2022-11-12T05:29:20.813Z,4.10
2022-11-12T05:32:09.028Z,4.10
2022-11-12T05:34:55.973Z,4.00
2022-11-12T05:37:42.542Z,4.00
2022-11-12T05:40:29.153Z,4.00
2022-11-12T05:43:19.399Z,3.90
2022-11-12T05:46:07.411Z,3.90
2022-11-12T05:48:54.622Z,3.80
2022-11-12T05:51:48.203Z,3.90
2022-11-12T05:54:34.673Z,3.90
2022-11-12T05:57:20.913Z,3.80
2022-11-12T06:00:09.249Z,3.80
2022-11-12T06:02:59.843Z,3.80
2022-11-12T06:05:47.192Z,3.80
2022-11-12T06:08:34.520Z,3.80
2022-11-12T06:11:21.733Z,3.80
2022-11-12T06:14:08.607Z,3.80
2022-11-12T06:16:55.427Z,3.80
2022-11-12T06:19:43.444Z,3.80
2022-11-12T06:22:30.332Z,3.80
2022-11-12T06:25:17.997Z,3.80
2022-11-12T06:28:04.823Z,3.80
2022-11-12T06:30:51.569Z,3.80
2022-11-12T06:33:38.520Z,3.90
2022-11-12T06:36:27.214Z,3.90
2022-11-12T06:39:13.933Z,3.90
2022-11-12T06:42:02.031Z,3.80
2022-11-12T06:44:48.654Z,3.80
2022-11-12T06:47:35.396Z,3.80
2022-11-12T06:50:22.243Z,3.80
2022-11-12T06:53:10.703Z,3.90
2022-11-12T06:56:03.023Z,4.00
2022-11-12T06:58:49.835Z,4.00
2022-11-12T07:01:37.258Z,4.00
2022-11-12T07:04:25.534Z,4.00
2022-11-12T07:07:12.326Z,4.00
2022-11-12T07:10:00.872Z,4.10
2022-11-12T07:12:52.994Z,4.00
2022-11-12T07:15:40.298Z,4.00
2022-11-12T07:18:28.195Z,3.90
2022-11-12T07:21:18.390Z,4.00
2022-11-12T07:24:05.567Z,4.10
2022-11-12T07:26:54.152Z,4.10
2022-11-12T07:29:49.036Z,4.10
2022-11-12T07:32:41.912Z,4.10
2022-11-12T07:35:31.365Z,4.10
2022-11-12T07:38:17.793Z,4.20
2022-11-12T07:41:06.879Z,4.20
2022-11-12T07:43:56.955Z,4.30
2022-11-12T07:46:43.432Z,4.20
2022-11-12T07:49:30.143Z,4.20
2022-11-12T07:52:16.710Z,4.30
2022-11-12T07:55:03.175Z,4.30
2022-11-12T07:57:49.721Z,4.40
2022-11-12T08:00:37.764Z,4.40
2022-11-12T08:03:24.914Z,4.50
2022-11-12T08:06:12.063Z,4.40
2022-11-12T08:09:00.661Z,4.40
2022-11-12T08:11:47.282Z,4.50
2022-11-12T08:14:34.106Z,4.60
2022-11-12T08:17:23.012Z,4.60
2022-11-12T08:20:10.243Z,4.60
2022-11-12T08:23:01.182Z,4.60
2022-11-12T08:25:47.856Z,4.60
2022-11-12T08:28:37.466Z,4.70
2022-11-12T08:31:24.833Z,4.70
2022-11-12T08:34:20.077Z,4.60
2022-11-12T08:37:09.611Z,4.80
2022-11-12T08:39:56.403Z,4.80
2022-11-12T08:42:43.194Z,4.90
2022-11-12T08:45:32.974Z,4.90
2022-11-12T08:48:19.537Z,4.90
2022-11-12T08:51:08.218Z,4.90
2022-11-12T08:53:55.808Z,4.90
2022-11-12T08:56:42.449Z,4.90
2022-11-12T08:59:29.208Z,5.00
2022-11-12T09:02:15.615Z,5.10
2022-11-12T09:05:03.592Z,5.20
2022-11-12T09:07:58.705Z,5.10
2022-11-12T09:10:46.541Z,5.10
2022-11-12T09:13:33.628Z,5.20
2022-11-12T09:16:24.687Z,5.20
2022-11-12T09:19:11.299Z,5.20
2022-11-12T09:21:57.986Z,5.20
2022-11-12T09:24:46.173Z,5.20
2022-11-12T09:27:33.094Z,5.20
2022-11-12T09:30:20.519Z,5.30
2022-11-12T09:33:07.243Z,5.30
2022-11-12T09:35:54.901Z,5.30
2022-11-12T09:38:41.240Z,5.40
2022-11-12T09:41:35.023Z,5.40
2022-11-12T09:44:24.380Z,5.40
2022-11-12T09:47:16.842Z,5.50
2022-11-12T09:50:21.802Z,5.60
2022-11-12T09:53:13.514Z,5.60
2022-11-12T09:56:00.839Z,5.60
2022-11-12T09:58:49.197Z,5.60
2022-11-12T10:01:46.112Z,5.50
2022-11-12T10:04:57.948Z,5.60
2022-11-12T10:07:57.335Z,5.60
2022-11-12T10:10:48.265Z,5.70
2022-11-12T10:13:47.088Z,5.70
2022-11-12T10:16:49.229Z,5.70
2022-11-12T10:19:54.813Z,5.80
2022-11-12T10:22:58.476Z,5.80
2022-11-12T10:25:48.679Z,5.90
2022-11-12T10:28:40.825Z,5.90
2022-11-12T10:31:27.690Z,5.90
2022-11-12T10:34:20.323Z,5.90
2022-11-12T10:37:13.093Z,6.10
2022-11-12T10:40:00.879Z,6.10
2022-11-12T10:42:58.696Z,6.10
2022-11-12T10:45:46.199Z,6.10
2022-11-12T10:48:35.656Z,6.20
2022-11-12T10:51:28.809Z,6.30
2022-11-12T10:54:29.802Z,6.20
2022-11-12T10:57:24.967Z,6.20
2022-11-12T11:00:22.566Z,6.30
2022-11-12T11:03:18.836Z,6.20
2022-11-12T11:06:07.916Z,6.30
2022-11-12T11:09:16.197Z,6.30
2022-11-12T11:12:03.205Z,6.40
2022-11-12T11:15:08.296Z,6.40
2022-11-12T11:17:55.895Z,6.40
2022-11-12T11:20:48.637Z,6.50
2022-11-12T11:23:44.632Z,6.50
2022-11-12T11:26:49.582Z,6.50
2022-11-12T11:29:55.061Z,6.60
2022-11-12T11:33:04.472Z,6.60
2022-11-12T11:36:03.330Z,6.60
2022-11-12T11:38:59.777Z,6.70
2022-11-12T11:42:04.973Z,6.70
2022-11-12T11:45:00.315Z,6.70
2022-11-12T11:48:01.700Z,6.80
2022-11-12T11:50:58.538Z,6.70
2022-11-12T11:53:54.754Z,6.80
2022-11-12T11:56:44.039Z,6.80
2022-11-12T11:59:44.763Z,6.80
2022-11-12T12:02:50.805Z,7.00
2022-11-12T12:05:43.871Z,7.00
2022-11-12T12:08:42.533Z,7.00
2022-11-12T12:11:36.342Z,6.90
2022-11-12T12:14:36.277Z,7.00
2022-11-12T12:17:40.978Z,7.10
2022-11-12T12:20:36.738Z,7.00
2022-11-12T12:23:30.827Z,7.10
2022-11-12T12:26:26.271Z,7.20
2022-11-12T12:29:18.443Z,7.30
2022-11-12T12:32:12.004Z,7.30
2022-11-12T12:35:04.855Z,7.30
2022-11-12T12:37:58.692Z,7.30
2022-11-12T12:40:52.561Z,7.30
2022-11-12T12:43:45.695Z,7.30
2022-11-12T12:46:36.387Z,7.30
2022-11-12T12:49:31.639Z,7.30
2022-11-12T12:52:19.721Z,7.30
2022-11-12T12:55:08.026Z,7.30
2022-11-12T12:58:00.323Z,7.30
2022-11-12T13:00:51.278Z,7.30
2022-11-12T13:03:57.522Z,7.30
2022-11-12T13:06:54.308Z,7.30
2022-11-12T13:09:42.299Z,7.30
2022-11-12T13:13:03.061Z,7.30
2022-11-12T13:15:50.608Z,7.40
2022-11-12T13:19:00.510Z,7.40
2022-11-12T13:21:46.989Z,7.40
2022-11-12T13:25:04.753Z,7.40
2022-11-12T13:28:14.621Z,7.40
2022-11-12T13:31:04.120Z,7.50
2022-11-12T13:33:50.846Z,7.40
2022-11-12T13:36:38.364Z,7.50
2022-11-12T13:39:26.425Z,7.50
2022-11-12T13:42:33.980Z,7.50
2022-11-12T13:45:23.597Z,7.50
2022-11-12T13:48:19.142Z,7.50
2022-11-12T13:51:13.785Z,7.50
2022-11-12T13:54:01.670Z,7.40
2022-11-12T13:56:48.207Z,7.40
2022-11-12T13:59:36.306Z,7.40
2022-11-12T14:02:26.922Z,7.40
2022-11-12T14:05:18.664Z,7.50
2022-11-12T14:08:47.405Z,7.50
2022-11-12T14:11:58.102Z,7.50
2022-11-12T14:15:01.345Z,7.50
2022-11-12T14:17:56.936Z,7.50
2022-11-12T14:20:44.434Z,7.50
2022-11-12T14:23:31.998Z,7.40
2022-11-12T14:26:37.229Z,7.40
2022-11-12T14:29:27.698Z,7.40
2022-11-12T14:32:20.085Z,7.40
2022-11-12T14:35:26.765Z,7.40
2022-11-12T14:38:19.359Z,7.40
2022-11-12T14:41:10.528Z,7.40
2022-11-12T14:44:12.660Z,7.40
2022-11-12T14:47:00.149Z,7.40
2022-11-12T14:49:51.110Z,7.40
2022-11-12T14:52:42.942Z,7.30
2022-11-12T14:55:32.487Z,7.20
2022-11-12T14:58:21.880Z,7.20
2022-11-12T15:04:38.430Z,7.30
2022-11-12T15:07:28.671Z,7.20
2022-11-12T15:10:36.369Z,7.20
2022-11-12T15:13:27.754Z,7.20
2022-11-12T15:16:20.568Z,7.20
2022-11-12T15:19:19.806Z,7.20
2022-11-12T15:22:07.097Z,7.10
2022-11-12T15:24:55.497Z,7.00
2022-11-12T15:27:43.929Z,6.90
2022-11-12T15:30:32.427Z,6.90
2022-11-12T15:33:24.455Z,6.90
2022-11-12T15:36:18.169Z,6.80
2022-11-12T15:39:13.373Z,6.80
2022-11-12T15:42:03.835Z,6.80
2022-11-12T15:44:57.298Z,6.80
2022-11-12T15:47:43.916Z,6.80
2022-11-12T15:50:32.604Z,6.90
2022-11-12T15:53:19.542Z,6.80
2022-11-12T15:56:09.620Z,6.80
2022-11-12T15:58:58.445Z,6.80
